Wetterdaten: Woche 10.10.05 - 16.10.05 (KW41)
Datum Zeit Temperatur Luftfeuchte Luftdruck Niederschlag Wind Richtung Sonne Solar Taupunkt Windchill
10.10.2005 00:00 8.1 C 100 % 1024.7 hPa 0.0 l/m 0.0 km/h (0 Bft) N 0.00 h 0 W/m 8.1 C 8.1 C
10.10.2005 01:00 7.8 C 100 % 1024.7 hPa 0.0 l/m 1.3 km/h (1 Bft) O 0.00 h 0 W/m 7.8 C 7.8 C
10.10.2005 02:00 8.3 C 100 % 1024.7 hPa 0.0 l/m 0.8 km/h (0 Bft) O 0.00 h 0 W/m 8.3 C 8.2 C
10.10.2005 03:00 8.4 C 100 % 1024.7 hPa 0.0 l/m 0.0 km/h (0 Bft) N 0.00 h 0 W/m 8.4 C 8.4 C
10.10.2005 04:00 8.4 C 100 % 1024.7 hPa 0.0 l/m 0.2 km/h (0 Bft) O-SO 0.00 h 0 W/m 8.4 C 8.4 C
10.10.2005 05:00 8.6 C 100 % 1024.6 hPa 0.3 l/m 0.0 km/h (0 Bft) N 0.00 h 0 W/m 8.6 C 8.6 C
10.10.2005 06:00 8.8 C 100 % 1024.6 hPa 0.0 l/m 0.1 km/h (0 Bft) N 0.00 h 0 W/m 8.8 C 8.8 C
10.10.2005 07:00 8.8 C 100 % 1024.6 hPa 0.0 l/m 0.8 km/h (0 Bft) W-NW 0.00 h 4 W/m 8.8 C 8.7 C
10.10.2005 08:00 8.8 C 100 % 1025.2 hPa 0.0 l/m 0.4 km/h (0 Bft) W-NW 0.00 h 20 W/m 8.8 C 8.8 C
10.10.2005 09:00 9.7 C 100 % 1025.5 hPa 0.0 l/m 0.1 km/h (0 Bft) N 0.00 h 46 W/m 9.7 C 9.7 C
10.10.2005 10:00 10.7 C 100 % 1025.4 hPa 0.0 l/m 1.4 km/h (1 Bft) O-SO 0.00 h 96 W/m 10.7 C 10.7 C
10.10.2005 11:00 11.8 C 98 % 1025.1 hPa 0.0 l/m 3.7 km/h (1 Bft) O-SO 0.00 h 120 W/m 11.5 C 11.8 C
10.10.2005 12:00 12.2 C 93 % 1024.2 hPa 0.0 l/m 0.7 km/h (0 Bft) O-SO 0.00 h 123 W/m 11.1 C 12.2 C
10.10.2005 13:00 12.7 C 88 % 1023.9 hPa 0.0 l/m 0.0 km/h (0 Bft) N 0.00 h 154 W/m 10.8 C 12.7 C
10.10.2005 14:00 13.2 C 84 % 1023.0 hPa 0.0 l/m 0.0 km/h (0 Bft) N 0.00 h 170 W/m 10.6 C 13.2 C
10.10.2005 15:00 14.3 C 80 % 1022.6 hPa 0.0 l/m 0.5 km/h (0 Bft) O 0.53 h 331 W/m 10.9 C 14.3 C
10.10.2005 16:00 14.7 C 77 % 1021.7 hPa 0.0 l/m 0.1 km/h (0 Bft) N 1.00 h 333 W/m 10.8 C 14.7 C
10.10.2005 17:00 14.2 C 81 % 1021.8 hPa 0.0 l/m 0.5 km/h (0 Bft) O 1.00 h 196 W/m 10.9 C 14.2 C
10.10.2005 18:00 12.7 C 87 % 1021.8 hPa 0.0 l/m 1.0 km/h (0 Bft) O 0.27 h 33 W/m 10.5 C 12.7 C
10.10.2005 19:00 10.7 C 93 % 1022.3 hPa 0.0 l/m 0.0 km/h (0 Bft) N 0.00 h 0 W/m 9.7 C 10.7 C
10.10.2005 20:00 9.9 C 97 % 1022.4 hPa 0.0 l/m 0.2 km/h (0 Bft) O 0.00 h 0 W/m 9.5 C 9.9 C
10.10.2005 21:00 8.9 C 99 % 1022.5 hPa 0.0 l/m 0.0 km/h (0 Bft) N 0.00 h 0 W/m 8.8 C 8.9 C
10.10.2005 22:00 9.4 C 100 % 1022.4 hPa 0.0 l/m 0.0 km/h (0 Bft) N 0.00 h 0 W/m 9.4 C 9.4 C
10.10.2005 23:00 9.4 C 100 % 1022.4 hPa 0.0 l/m 0.0 km/h (0 Bft) N 0.00 h 0 W/m 9.4 C 9.4 C
11.10.2005 00:00 9.1 C 100 % 1022.5 hPa 0.0 l/m 0.0 km/h (0 Bft) N 0.00 h 0 W/m 9.1 C 9.1 C
11.10.2005 01:00 9.1 C 100 % 1022.5 hPa 0.0 l/m 0.0 km/h (0 Bft) N 0.00 h 0 W/m 9.1 C 9.1 C
11.10.2005 02:00 9.5 C 100 % 1022.4 hPa 0.0 l/m 0.0 km/h (0 Bft) N 0.00 h 0 W/m 9.5 C 9.5 C
11.10.2005 03:00 9.5 C 100 % 1022.4 hPa 0.0 l/m 0.0 km/h (0 Bft) N 0.00 h 0 W/m 9.5 C 9.5 C
11.10.2005 04:00 9.6 C 100 % 1022.4 hPa 0.0 l/m 0.2 km/h (0 Bft) O-SO 0.00 h 0 W/m 9.6 C 9.6 C
11.10.2005 05:00 9.7 C 100 % 1022.4 hPa 0.0 l/m 0.6 km/h (0 Bft) O-SO 0.00 h 0 W/m 9.7 C 9.7 C
11.10.2005 06:00 9.9 C 100 % 1022.4 hPa 0.0 l/m 0.0 km/h (0 Bft) N 0.00 h 0 W/m 9.9 C 9.9 C
11.10.2005 07:00 10.1 C 100 % 1020.5 hPa 0.0 l/m 0.0 km/h (0 Bft) N 0.00 h 3 W/m 10.1 C 10.1 C
11.10.2005 08:00 10.7 C 100 % 1020.2 hPa 0.3 l/m 0.0 km/h (0 Bft) N 0.00 h 13 W/m 10.7 C 10.7 C
11.10.2005 09:00 11.1 C 98 % 1021.1 hPa 0.0 l/m 0.0 km/h (0 Bft) N 0.00 h 40 W/m 10.8 C 11.1 C
11.10.2005 10:00 11.5 C 94 % 1021.1 hPa 0.0 l/m 1.3 km/h (1 Bft) O-SO 0.00 h 68 W/m 10.6 C 11.5 C
11.10.2005 11:00 11.9 C 90 % 1021.1 hPa 0.0 l/m 0.1 km/h (0 Bft) O-SO 0.00 h 96 W/m 10.4 C 11.9 C
11.10.2005 12:00 12.5 C 88 % 1020.7 hPa 0.0 l/m 0.4 km/h (0 Bft) O-SO 0.00 h 126 W/m 10.6 C 12.5 C
11.10.2005 13:00 13.0 C 84 % 1019.9 hPa 0.0 l/m 2.4 km/h (1 Bft) W 0.00 h 193 W/m 10.4 C 13.0 C
11.10.2005 14:00 14.2 C 80 % 1019.2 hPa 0.0 l/m 2.6 km/h (1 Bft) W-NW 0.53 h 383 W/m 10.8 C 14.2 C
11.10.2005 15:00 16.0 C 76 % 1018.4 hPa 0.0 l/m 4.8 km/h (1 Bft) W-NW 1.00 h 410 W/m 11.8 C 16.0 C
11.10.2005 16:00 16.8 C 76 % 1017.4 hPa 0.0 l/m 5.1 km/h (1 Bft) W-NW 1.00 h 307 W/m 12.6 C 16.8 C
11.10.2005 17:00 16.5 C 79 % 1017.3 hPa 0.0 l/m 1.3 km/h (1 Bft) W-NW 1.00 h 168 W/m 12.8 C 16.5 C
11.10.2005 18:00 14.6 C 86 % 1017.6 hPa 0.0 l/m 0.0 km/h (0 Bft) N 0.12 h 28 W/m 12.3 C 14.6 C
11.10.2005 19:00 12.4 C 93 % 1018.6 hPa 0.0 l/m 0.0 km/h (0 Bft) N 0.00 h 0 W/m 11.3 C 12.4 C
11.10.2005 20:00 11.2 C 97 % 1019.1 hPa 0.0 l/m 0.6 km/h (0 Bft) W-NW 0.00 h 0 W/m 10.7 C 11.2 C
11.10.2005 21:00 10.2 C 99 % 1019.2 hPa 0.0 l/m 0.1 km/h (0 Bft) N 0.00 h 0 W/m 10.1 C 10.2 C
11.10.2005 22:00 10.2 C 100 % 1019.6 hPa 0.0 l/m 1.8 km/h (1 Bft) W-NW 0.00 h 0 W/m 10.1 C 10.2 C
11.10.2005 23:00 9.3 C 100 % 1020.4 hPa 0.0 l/m 2.3 km/h (1 Bft) O 0.00 h 0 W/m 9.3 C 9.1 C
12.10.2005 00:00 9.3 C 100 % 1020.0 hPa 0.0 l/m 0.0 km/h (0 Bft) N 0.00 h 0 W/m 9.3 C 9.3 C
12.10.2005 01:00 9.2 C 100 % 1020.4 hPa 0.0 l/m 0.0 km/h (0 Bft) N 0.00 h 0 W/m 9.2 C 9.2 C
12.10.2005 02:00 9.0 C 100 % 1020.4 hPa 0.0 l/m 0.0 km/h (0 Bft) N 0.00 h 0 W/m 9.0 C 9.0 C
12.10.2005 03:00 8.5 C 100 % 1020.5 hPa 0.0 l/m 0.0 km/h (0 Bft) N 0.00 h 0 W/m 8.5 C 8.5 C
12.10.2005 04:00 8.5 C 100 % 1020.5 hPa 0.0 l/m 0.0 km/h (0 Bft) N 0.00 h 0 W/m 8.5 C 8.5 C
12.10.2005 05:00 8.7 C 100 % 1020.5 hPa 0.0 l/m 0.0 km/h (0 Bft) N 0.00 h 0 W/m 8.7 C 8.7 C
12.10.2005 06:00 8.8 C 100 % 1020.5 hPa 0.0 l/m 0.0 km/h (0 Bft) N 0.00 h 0 W/m 8.8 C 8.8 C
12.10.2005 07:00 8.7 C 100 % 1020.5 hPa 0.0 l/m 0.1 km/h (0 Bft) O-SO 0.00 h 5 W/m 8.7 C 8.7 C
12.10.2005 08:00 8.9 C 100 % 1020.7 hPa 0.0 l/m 0.0 km/h (0 Bft) N 0.00 h 30 W/m 8.9 C 8.9 C
12.10.2005 09:00 8.9 C 100 % 1021.5 hPa 0.0 l/m 0.6 km/h (0 Bft) W-NW 0.00 h 70 W/m 8.9 C 8.9 C
12.10.2005 10:00 9.4 C 100 % 1021.3 hPa 0.3 l/m 0.3 km/h (0 Bft) W-NW 0.00 h 112 W/m 9.3 C 9.4 C
12.10.2005 11:00 11.0 C 94 % 1020.2 hPa 0.0 l/m 0.8 km/h (0 Bft) W-NW 0.50 h 355 W/m 10.0 C 11.0 C
12.10.2005 12:00 12.9 C 86 % 1019.5 hPa 0.0 l/m 1.3 km/h (1 Bft) NW 1.00 h 496 W/m 10.6 C 12.9 C
12.10.2005 13:00 15.2 C 71 % 1018.5 hPa 0.0 l/m 2.3 km/h (1 Bft) W-NW 1.00 h 520 W/m 10.0 C 15.2 C
12.10.2005 14:00 17.3 C 65 % 1017.2 hPa 0.0 l/m 0.8 km/h (0 Bft) O 1.00 h 496 W/m 10.8 C 17.3 C
12.10.2005 15:00 18.5 C 61 % 1016.7 hPa 0.0 l/m 3.8 km/h (1 Bft) O-SO 1.00 h 432 W/m 10.9 C 18.5 C
12.10.2005 16:00 18.5 C 58 % 1016.0 hPa 0.0 l/m 1.3 km/h (1 Bft) O-SO 1.00 h 332 W/m 10.0 C 18.5 C
12.10.2005 17:00 17.6 C 59 % 1016.2 hPa 0.0 l/m 5.8 km/h (1 Bft) O-SO 0.97 h 187 W/m 9.5 C 17.6 C
12.10.2005 18:00 14.9 C 70 % 1016.5 hPa 0.0 l/m 1.6 km/h (1 Bft) O-SO 0.10 h 29 W/m 9.5 C 14.9 C
12.10.2005 19:00 11.6 C 86 % 1017.1 hPa 0.0 l/m 0.8 km/h (0 Bft) O-SO 0.00 h 0 W/m 9.3 C 11.6 C
12.10.2005 20:00 9.8 C 94 % 1018.2 hPa 0.0 l/m 2.1 km/h (1 Bft) O-SO 0.00 h 0 W/m 8.8 C 9.8 C
12.10.2005 21:00 8.8 C 97 % 1018.4 hPa 0.0 l/m 0.0 km/h (0 Bft) N 0.00 h 0 W/m 8.3 C 8.8 C
12.10.2005 22:00 8.0 C 99 % 1018.5 hPa 0.0 l/m 0.0 km/h (0 Bft) N 0.00 h 0 W/m 7.8 C 8.0 C
12.10.2005 23:00 7.4 C 100 % 1018.6 hPa 0.0 l/m 0.3 km/h (0 Bft) O-SO 0.00 h 0 W/m 7.4 C 7.4 C
13.10.2005 00:00 6.9 C 99 % 1018.6 hPa 0.0 l/m 0.3 km/h (0 Bft) O-SO 0.00 h 0 W/m 6.8 C 6.9 C
13.10.2005 01:00 6.3 C 100 % 1018.7 hPa 0.0 l/m 0.0 km/h (0 Bft) N 0.00 h 0 W/m 6.3 C 6.3 C
13.10.2005 02:00 6.2 C 100 % 1018.7 hPa 0.0 l/m 0.0 km/h (0 Bft) N 0.00 h 0 W/m 6.2 C 6.2 C
13.10.2005 03:00 6.6 C 100 % 1018.7 hPa 0.0 l/m 0.0 km/h (0 Bft) N 0.00 h 0 W/m 6.6 C 6.6 C
13.10.2005 04:00 6.5 C 100 % 1018.7 hPa 0.0 l/m 0.2 km/h (0 Bft) O-SO 0.00 h 0 W/m 6.5 C 6.5 C
13.10.2005 05:00 6.5 C 100 % 1018.7 hPa 0.0 l/m 0.2 km/h (0 Bft) O-SO 0.00 h 0 W/m 6.5 C 6.5 C
13.10.2005 06:00 6.5 C 100 % 1019.0 hPa 0.0 l/m 0.1 km/h (0 Bft) O-SO 0.00 h 0 W/m 6.5 C 6.5 C
13.10.2005 07:00 6.2 C 100 % 1019.8 hPa 0.0 l/m 0.4 km/h (0 Bft) O-SO 0.00 h 6 W/m 6.2 C 6.2 C
13.10.2005 08:00 6.8 C 100 % 1020.0 hPa 0.0 l/m 0.0 km/h (0 Bft) N 0.00 h 25 W/m 6.8 C 6.8 C
13.10.2005 09:00 7.5 C 100 % 1020.6 hPa 0.0 l/m 0.0 km/h (0 Bft) N 0.00 h 70 W/m 7.5 C 7.5 C
13.10.2005 10:00 8.2 C 99 % 1020.5 hPa 0.0 l/m 0.5 km/h (0 Bft) W 0.00 h 133 W/m 8.0 C 8.2 C
13.10.2005 11:00 9.5 C 93 % 1020.3 hPa 0.0 l/m 1.4 km/h (1 Bft) W 0.23 h 272 W/m 8.4 C 9.5 C
13.10.2005 12:00 11.4 C 87 % 1020.1 hPa 0.0 l/m 1.9 km/h (1 Bft) W-NW 1.00 h 506 W/m 9.3 C 11.4 C
13.10.2005 13:00 14.3 C 74 % 1018.9 hPa 0.0 l/m 2.5 km/h (1 Bft) W-NW 1.00 h 521 W/m 9.7 C 14.3 C
13.10.2005 14:00 16.5 C 64 % 1018.4 hPa 0.0 l/m 4.0 km/h (1 Bft) W-NW 1.00 h 492 W/m 9.7 C 16.5 C
13.10.2005 15:00 17.9 C 59 % 1018.2 hPa 0.0 l/m 1.1 km/h (0 Bft) W-NW 1.00 h 418 W/m 9.7 C 17.9 C
13.10.2005 16:00 18.1 C 53 % 1018.2 hPa 0.0 l/m 7.5 km/h (2 Bft) O-SO 1.00 h 309 W/m 8.4 C 18.1 C
13.10.2005 17:00 16.9 C 59 % 1018.3 hPa 0.0 l/m 4.4 km/h (1 Bft) O-SO 0.93 h 146 W/m 8.8 C 16.9 C
13.10.2005 18:00 14.4 C 70 % 1018.8 hPa 0.0 l/m 0.0 km/h (0 Bft) N 0.15 h 27 W/m 9.0 C 14.4 C
13.10.2005 19:00 11.6 C 86 % 1020.1 hPa 0.0 l/m 3.3 km/h (1 Bft) O-SO 0.00 h 0 W/m 9.3 C 11.6 C
13.10.2005 20:00 10.0 C 93 % 1020.9 hPa 0.0 l/m 0.1 km/h (0 Bft) N 0.00 h 0 W/m 8.9 C 10.0 C
13.10.2005 21:00 8.9 C 96 % 1021.9 hPa 0.0 l/m 0.0 km/h (0 Bft) N 0.00 h 0 W/m 8.3 C 8.9 C
13.10.2005 22:00 8.2 C 99 % 1022.6 hPa 0.0 l/m 0.7 km/h (0 Bft) O 0.00 h 0 W/m 8.0 C 8.2 C
13.10.2005 23:00 7.7 C 99 % 1023.0 hPa 0.0 l/m 0.0 km/h (0 Bft) N 0.00 h 0 W/m 7.5 C 7.7 C
14.10.2005 00:00 6.9 C 100 % 1023.8 hPa 0.0 l/m 0.0 km/h (0 Bft) N 0.00 h 0 W/m 6.8 C 6.9 C
14.10.2005 01:00 5.8 C 100 % 1024.0 hPa 0.0 l/m 0.0 km/h (0 Bft) N 0.00 h 0 W/m 5.8 C 5.8 C
14.10.2005 02:00 5.3 C 100 % 1024.1 hPa 0.3 l/m 0.0 km/h (0 Bft) N 0.00 h 0 W/m 5.3 C 5.3 C
14.10.2005 03:00 4.8 C 100 % 1024.1 hPa 0.0 l/m 0.0 km/h (0 Bft) N 0.00 h 0 W/m 4.8 C 4.8 C
14.10.2005 04:00 4.7 C 100 % 1024.1 hPa 0.0 l/m 0.1 km/h (0 Bft) O 0.00 h 0 W/m 4.7 C 4.7 C
14.10.2005 05:00 5.9 C 100 % 1024.0 hPa 0.0 l/m 0.0 km/h (0 Bft) N 0.00 h 0 W/m 5.9 C 5.9 C
14.10.2005 06:00 6.1 C 100 % 1024.6 hPa 0.0 l/m 0.0 km/h (0 Bft) N 0.00 h 0 W/m 6.1 C 6.1 C
14.10.2005 07:00 6.1 C 100 % 1025.0 hPa 0.0 l/m 0.3 km/h (0 Bft) W-NW 0.00 h 5 W/m 6.1 C 6.1 C
14.10.2005 08:00 6.5 C 100 % 1025.5 hPa 0.0 l/m 0.0 km/h (0 Bft) N 0.00 h 25 W/m 6.5 C 6.5 C
14.10.2005 09:00 7.2 C 100 % 1026.9 hPa 0.0 l/m 0.1 km/h (0 Bft) W-NW 0.00 h 65 W/m 7.2 C 7.2 C
14.10.2005 10:00 8.4 C 96 % 1026.7 hPa 0.0 l/m 0.1 km/h (0 Bft) N 0.00 h 153 W/m 7.7 C 8.4 C
14.10.2005 11:00 9.3 C 89 % 1026.6 hPa 0.0 l/m 3.7 km/h (1 Bft) W-NW 0.80 h 413 W/m 7.6 C 9.1 C
14.10.2005 12:00 11.6 C 82 % 1026.3 hPa 0.0 l/m 1.3 km/h (1 Bft) W-NW 1.00 h 517 W/m 8.6 C 11.6 C
14.10.2005 13:00 14.5 C 72 % 1025.7 hPa 0.0 l/m 4.6 km/h (1 Bft) O-SO 1.00 h 531 W/m 9.5 C 14.5 C
14.10.2005 14:00 16.6 C 61 % 1024.6 hPa 0.0 l/m 10.6 km/h (2 Bft) O-SO 1.00 h 504 W/m 8.9 C 16.6 C
14.10.2005 15:00 17.6 C 55 % 1024.3 hPa 0.0 l/m 11.6 km/h (2 Bft) O-SO 1.00 h 434 W/m 8.3 C 17.6 C
14.10.2005 16:00 17.5 C 54 % 1023.5 hPa 0.0 l/m 8.1 km/h (2 Bft) O-SO 1.00 h 327 W/m 8.3 C 17.5 C
14.10.2005 17:00 16.6 C 55 % 1023.9 hPa 0.0 l/m 5.5 km/h (1 Bft) O-SO 0.97 h 184 W/m 7.6 C 16.6 C
14.10.2005 18:00 13.6 C 70 % 1025.0 hPa 0.0 l/m 0.0 km/h (0 Bft) N 0.03 h 26 W/m 8.1 C 13.6 C
14.10.2005 19:00 10.5 C 85 % 1026.1 hPa 0.0 l/m 0.1 km/h (0 Bft) N 0.00 h 0 W/m 8.1 C 10.5 C
14.10.2005 20:00 8.6 C 92 % 1026.7 hPa 0.0 l/m 0.0 km/h (0 Bft) N 0.00 h 0 W/m 7.4 C 8.6 C
14.10.2005 21:00 8.0 C 97 % 1027.0 hPa 0.0 l/m 0.4 km/h (0 Bft) O-SO 0.00 h 0 W/m 7.5 C 8.0 C
14.10.2005 22:00 7.4 C 98 % 1027.9 hPa 0.0 l/m 0.7 km/h (0 Bft) O-SO 0.00 h 0 W/m 7.2 C 7.4 C
14.10.2005 23:00 6.5 C 99 % 1028.1 hPa 0.0 l/m 0.3 km/h (0 Bft) O-SO 0.00 h 0 W/m 6.3 C 6.5 C
15.10.2005 00:00 6.8 C 93 % 1028.0 hPa 0.0 l/m 0.4 km/h (0 Bft) O-SO 0.00 h 0 W/m 5.8 C 6.8 C
15.10.2005 01:00 6.6 C 94 % 1028.0 hPa 0.0 l/m 1.6 km/h (1 Bft) O-SO 0.00 h 0 W/m 5.7 C 6.4 C
15.10.2005 02:00 6.0 C 95 % 1028.1 hPa 0.0 l/m 0.9 km/h (0 Bft) O-SO 0.00 h 0 W/m 5.2 C 6.0 C
15.10.2005 03:00 5.2 C 96 % 1028.2 hPa 0.0 l/m 0.0 km/h (0 Bft) N 0.00 h 0 W/m 4.7 C 5.2 C
15.10.2005 04:00 5.0 C 97 % 1028.3 hPa 0.0 l/m 0.2 km/h (0 Bft) O-SO 0.00 h 0 W/m 4.5 C 5.0 C
15.10.2005 05:00 4.6 C 98 % 1028.3 hPa 0.0 l/m 0.0 km/h (0 Bft) N 0.00 h 0 W/m 4.3 C 4.6 C
15.10.2005 06:00 5.7 C 100 % 1028.2 hPa 0.0 l/m 0.0 km/h (0 Bft) N 0.00 h 0 W/m 5.7 C 5.7 C
15.10.2005 07:00 5.5 C 100 % 1028.2 hPa 0.3 l/m 0.8 km/h (0 Bft) O-SO 0.00 h 6 W/m 5.5 C 5.4 C
15.10.2005 08:00 5.5 C 100 % 1028.2 hPa 0.0 l/m 0.0 km/h (0 Bft) N 0.00 h 27 W/m 5.5 C 5.5 C
15.10.2005 09:00 6.1 C 100 % 1028.8 hPa 0.0 l/m 0.0 km/h (0 Bft) N 0.00 h 61 W/m 6.1 C 6.1 C
15.10.2005 10:00 7.5 C 99 % 1028.9 hPa 0.0 l/m 0.4 km/h (0 Bft) W-NW 0.03 h 162 W/m 7.4 C 7.5 C
15.10.2005 11:00 9.6 C 92 % 1028.7 hPa 0.0 l/m 7.8 km/h (2 Bft) O-SO 0.00 h 195 W/m 8.4 C 8.9 C
15.10.2005 12:00 11.0 C 83 % 1028.5 hPa 0.0 l/m 12.4 km/h (3 Bft) O-SO 0.17 h 301 W/m 8.1 C 11.0 C
15.10.2005 13:00 12.0 C 77 % 1027.9 hPa 0.0 l/m 6.8 km/h (2 Bft) O-SO 0.30 h 337 W/m 8.1 C 12.0 C
15.10.2005 14:00 13.2 C 73 % 1027.1 hPa 0.0 l/m 7.4 km/h (2 Bft) O-SO 1.00 h 476 W/m 8.5 C 13.2 C
15.10.2005 15:00 14.0 C 70 % 1026.5 hPa 0.0 l/m 4.1 km/h (1 Bft) O-SO 1.00 h 384 W/m 8.7 C 14.0 C
15.10.2005 16:00 14.3 C 70 % 1025.9 hPa 0.0 l/m 4.7 km/h (1 Bft) O-SO 1.00 h 287 W/m 8.9 C 14.3 C
15.10.2005 17:00 13.6 C 73 % 1025.7 hPa 0.0 l/m 6.8 km/h (2 Bft) O-SO 0.98 h 164 W/m 8.9 C 13.6 C
15.10.2005 18:00 11.6 C 82 % 1025.3 hPa 0.0 l/m 6.9 km/h (2 Bft) O-SO 0.50 h 37 W/m 8.6 C 11.6 C
15.10.2005 19:00 9.7 C 91 % 1026.4 hPa 0.0 l/m 1.3 km/h (1 Bft) O-SO 0.00 h 0 W/m 8.3 C 9.6 C
15.10.2005 20:00 8.1 C 96 % 1026.8 hPa 0.0 l/m 0.0 km/h (0 Bft) N 0.00 h 0 W/m 7.4 C 8.1 C
15.10.2005 21:00 7.0 C 97 % 1026.9 hPa 0.0 l/m 0.4 km/h (0 Bft) O-SO 0.00 h 0 W/m 6.6 C 7.0 C
15.10.2005 22:00 6.4 C 99 % 1027.0 hPa 0.0 l/m 1.4 km/h (1 Bft) O-SO 0.00 h 0 W/m 6.3 C 6.2 C
15.10.2005 23:00 5.6 C 100 % 1027.1 hPa 0.0 l/m 0.8 km/h (0 Bft) O-SO 0.00 h 0 W/m 5.6 C 5.6 C
16.10.2005 00:00 6.6 C 100 % 1027.0 hPa 0.0 l/m 0.0 km/h (0 Bft) N 0.00 h 0 W/m 6.6 C 6.6 C
16.10.2005 01:00 6.8 C 100 % 1027.0 hPa 0.0 l/m 0.8 km/h (0 Bft) O-SO 0.00 h 0 W/m 6.8 C 6.7 C
16.10.2005 02:00 6.9 C 100 % 1026.9 hPa 0.0 l/m 1.0 km/h (0 Bft) O 0.00 h 0 W/m 6.9 C 6.9 C
16.10.2005 03:00 7.2 C 100 % 1026.9 hPa 0.0 l/m 0.3 km/h (0 Bft) O 0.00 h 0 W/m 7.2 C 7.2 C
16.10.2005 04:00 7.1 C 100 % 1026.9 hPa 0.0 l/m 4.2 km/h (1 Bft) O-SO 0.00 h 0 W/m 7.1 C 6.5 C
16.10.2005 05:00 6.9 C 100 % 1026.9 hPa 0.0 l/m 3.0 km/h (1 Bft) O-SO 0.00 h 0 W/m 6.9 C 6.4 C
16.10.2005 06:00 6.9 C 100 % 1026.9 hPa 0.0 l/m 2.9 km/h (1 Bft) O-SO 0.00 h 0 W/m 6.9 C 6.5 C
16.10.2005 07:00 7.0 C 100 % 1026.9 hPa 0.0 l/m 0.2 km/h (0 Bft) O-SO 0.00 h 2 W/m 7.0 C 7.0 C
16.10.2005 08:00 6.9 C 99 % 1027.0 hPa 0.0 l/m 0.1 km/h (0 Bft) N 0.00 h 9 W/m 6.7 C 6.9 C
16.10.2005 09:00 6.8 C 97 % 1027.0 hPa 0.0 l/m 0.0 km/h (0 Bft) N 0.00 h 29 W/m 6.3 C 6.8 C
16.10.2005 10:00 7.4 C 95 % 1026.9 hPa 0.0 l/m 0.0 km/h (0 Bft) N 0.00 h 70 W/m 6.7 C 7.4 C
16.10.2005 11:00 8.4 C 93 % 1026.7 hPa 0.0 l/m 0.0 km/h (0 Bft) N 0.00 h 77 W/m 7.4 C 8.4 C
16.10.2005 12:00 9.3 C 90 % 1026.6 hPa 0.0 l/m 0.0 km/h (0 Bft) N 0.00 h 84 W/m 7.7 C 9.3 C
16.10.2005 13:00 10.0 C 86 % 1025.5 hPa 0.0 l/m 0.9 km/h (0 Bft) O-SO 0.00 h 99 W/m 7.9 C 10.0 C
16.10.2005 14:00 10.3 C 86 % 1025.4 hPa 0.0 l/m 3.3 km/h (1 Bft) O-SO 0.00 h 88 W/m 7.9 C 10.3 C
16.10.2005 15:00 10.4 C 84 % 1025.2 hPa 0.0 l/m 7.4 km/h (2 Bft) O-SO 0.00 h 72 W/m 7.9 C 10.4 C
16.10.2005 16:00 10.5 C 84 % 1024.4 hPa 0.0 l/m 3.9 km/h (1 Bft) O-SO 0.00 h 51 W/m 8.0 C 10.5 C
16.10.2005 17:00 10.4 C 85 % 1024.4 hPa 0.0 l/m 2.1 km/h (1 Bft) O-SO 0.00 h 21 W/m 8.0 C 10.4 C
16.10.2005 18:00 10.1 C 86 % 1024.4 hPa 0.0 l/m 0.1 km/h (0 Bft) N 0.00 h 4 W/m 7.9 C 10.1 C
16.10.2005 19:00 10.0 C 87 % 1024.7 hPa 0.0 l/m 3.7 km/h (1 Bft) O-SO 0.00 h 0 W/m 8.0 C 9.9 C
16.10.2005 20:00 9.9 C 87 % 1025.3 hPa 0.0 l/m 2.5 km/h (1 Bft) O-SO 0.00 h 0 W/m 7.9 C 9.7 C
16.10.2005 21:00 9.8 C 86 % 1025.5 hPa 0.0 l/m 0.4 km/h (0 Bft) O-SO 0.00 h 0 W/m 7.5 C 9.8 C
16.10.2005 22:00 9.8 C 86 % 1024.5 hPa 0.0 l/m 0.1 km/h (0 Bft) NO 0.00 h 0 W/m 7.5 C 9.8 C
16.10.2005 23:00 9.7 C 87 % 1024.5 hPa 0.0 l/m 0.0 km/h (0 Bft) N 0.00 h 0 W/m 7.6 C 9.7 C
Min-Datum _ 15.10.05 13.10.05 12.10.05 - 10.10.05 - - - 15.10.05 15.10.05
_ Min-Zeit 05:17 16:11 16:05 - 00:01 - - - 05:17 05:17
Minimum _ 4.2 C 51 % 1016.0 hPa - 0.0 km/h (0 Bft) - - - 3.9 C 4.2 C
Max-Datum _ 12.10.05 10.10.05 15.10.05 10.10.05 14.10.05 - 11.10.05 15.10.05 11.10.05 12.10.05
_ Max-Zeit 16:05 00:01 09:21 05:55 16:41 - 16:32 13:51 17:31 16:05
Maximum _ 18.8 C 100 % 1029.2 hPa 0.3 l/m 24.6 km/h
O-SO (4 Bft)
- 0.05 h 600 W/m 13.2 C 18.8 C
Durchschnitt _ 9.9 C 91 % 1023.1 hPa #1.6 l/m 1.4 km/h (1 Bft) O-SO #31:07 h 187 W/m 8.3 C 9.9 C

Durchschnitt Minimum Temp.9.4 C
Durchschnitt Maximum Temp.10.4 C
© Kaiko 2005